createdAt,value
2023-04-14T00:01:56.772Z,2.70
2023-04-14T00:04:24.287Z,2.60
2023-04-14T00:06:52.684Z,2.70
2023-04-14T00:09:20.019Z,2.60
2023-04-14T00:11:47.214Z,2.53
2023-04-14T00:14:14.292Z,2.60
2023-04-14T00:16:42.992Z,2.77
2023-04-14T00:19:10.286Z,2.80
2023-04-14T00:21:37.390Z,2.83
2023-04-14T00:24:04.575Z,3.30
2023-04-14T00:26:33.091Z,3.20
2023-04-14T00:29:00.401Z,3.20
2023-04-14T00:31:27.732Z,3.33
2023-04-14T00:33:54.864Z,3.20
2023-04-14T00:36:21.992Z,3.10
2023-04-14T00:38:49.081Z,3.30
2023-04-14T00:41:16.161Z,3.13
2023-04-14T00:43:43.256Z,3.33
2023-04-14T00:46:10.442Z,3.03
2023-04-14T00:48:37.757Z,2.80
2023-04-14T00:51:04.950Z,3.10
2023-04-14T00:53:33.066Z,2.90
2023-04-14T00:56:01.078Z,3.20
2023-04-14T00:58:28.327Z,3.10
2023-04-14T01:00:56.157Z,3.50
2023-04-14T01:03:24.715Z,3.00
2023-04-14T01:05:52.155Z,2.90
2023-04-14T01:08:19.853Z,2.97
2023-04-14T01:10:55.193Z,2.57
2023-04-14T01:13:33.418Z,2.70
2023-04-14T01:16:03.200Z,2.77
2023-04-14T01:18:40.515Z,2.80
2023-04-14T01:21:11.565Z,2.50
2023-04-14T01:23:42.562Z,2.80
2023-04-14T01:26:24.732Z,2.73
2023-04-14T01:29:01.265Z,2.30
2023-04-14T01:31:33.286Z,3.20
2023-04-14T01:34:19.205Z,2.80
2023-04-14T01:37:02.331Z,2.60
2023-04-14T01:39:33.726Z,2.57
2023-04-14T01:42:02.067Z,2.60
2023-04-14T01:44:30.539Z,2.50
2023-04-14T01:47:01.290Z,2.67
2023-04-14T01:49:29.619Z,2.30
2023-04-14T01:51:56.740Z,2.60
2023-04-14T01:54:24.069Z,2.20
2023-04-14T01:56:52.338Z,2.60
2023-04-14T01:59:19.850Z,2.50
2023-04-14T02:01:47.556Z,2.70
2023-04-14T02:04:14.870Z,2.90
2023-04-14T02:06:43.080Z,2.47
2023-04-14T02:09:13.030Z,2.70
2023-04-14T02:11:41.143Z,2.73
2023-04-14T02:14:08.574Z,2.57
2023-04-14T02:16:36.338Z,2.80
2023-04-14T02:19:04.578Z,2.63
2023-04-14T02:21:32.679Z,2.63
2023-04-14T02:23:59.834Z,2.53
2023-04-14T02:26:28.517Z,2.67
2023-04-14T02:29:03.182Z,2.70
2023-04-14T02:31:32.593Z,2.87
2023-04-14T02:34:01.371Z,2.80
2023-04-14T02:36:32.551Z,2.97
2023-04-14T02:39:01.771Z,2.97
2023-04-14T02:41:30.314Z,3.10
2023-04-14T02:44:14.822Z,2.80
2023-04-14T02:46:43.194Z,3.20
2023-04-14T02:49:13.057Z,3.30
2023-04-14T02:51:41.036Z,2.70
2023-04-14T02:54:08.433Z,3.07
2023-04-14T02:56:36.066Z,3.17
2023-04-14T02:59:03.856Z,3.20
2023-04-14T03:01:33.013Z,3.23
2023-04-14T03:04:00.580Z,3.50
2023-04-14T03:06:28.514Z,3.43
2023-04-14T03:08:56.149Z,3.67
2023-04-14T03:11:23.501Z,3.47
2023-04-14T03:13:53.246Z,3.60
2023-04-14T03:16:21.666Z,4.00
2023-04-14T03:18:49.860Z,3.50
2023-04-14T03:21:18.594Z,3.60
2023-04-14T03:23:46.067Z,3.73
2023-04-14T03:26:13.977Z,3.10
2023-04-14T03:28:42.840Z,3.30
2023-04-14T03:31:11.697Z,3.70
2023-04-14T03:33:39.040Z,3.57
2023-04-14T03:36:07.481Z,3.47
2023-04-14T03:38:36.080Z,3.60
2023-04-14T03:41:05.519Z,3.50
2023-04-14T03:43:34.249Z,3.60
2023-04-14T03:46:02.470Z,3.57
2023-04-14T03:48:31.601Z,3.53
2023-04-14T03:51:00.020Z,3.70
2023-04-14T03:53:27.646Z,3.27
2023-04-14T03:55:57.018Z,3.87
2023-04-14T03:58:25.019Z,3.73
2023-04-14T04:00:53.645Z,3.50
2023-04-14T04:03:22.376Z,3.70
2023-04-14T04:05:50.268Z,3.90
2023-04-14T04:08:18.508Z,3.97
2023-04-14T04:10:47.539Z,3.43
2023-04-14T04:13:17.208Z,3.40
2023-04-14T04:15:44.831Z,3.73
2023-04-14T04:18:15.424Z,4.00
2023-04-14T04:20:43.288Z,3.80
2023-04-14T04:23:10.574Z,3.87
2023-04-14T04:25:38.139Z,3.80
2023-04-14T04:28:05.480Z,3.50
2023-04-14T04:30:33.376Z,3.70
2023-04-14T04:33:03.949Z,3.63
2023-04-14T04:35:32.693Z,3.80
2023-04-14T04:38:01.936Z,3.87
2023-04-14T04:40:30.406Z,3.77
2023-04-14T04:42:57.562Z,3.90
2023-04-14T04:45:36.503Z,4.07
2023-04-14T04:48:04.380Z,4.07
2023-04-14T04:50:31.512Z,4.23
2023-04-14T04:52:58.587Z,3.83
2023-04-14T04:55:25.895Z,4.23
2023-04-14T04:57:53.072Z,4.20
2023-04-14T05:00:22.879Z,4.30
2023-04-14T05:02:50.143Z,4.07
2023-04-14T05:05:17.268Z,4.23
2023-04-14T05:07:44.389Z,4.43
2023-04-14T05:10:12.191Z,4.53
2023-04-14T05:12:39.307Z,4.60
2023-04-14T05:15:08.425Z,4.30
2023-04-14T05:17:35.646Z,4.23
2023-04-14T05:20:02.782Z,4.53
2023-04-14T05:22:29.940Z,4.53
2023-04-14T05:24:57.460Z,4.67
2023-04-14T05:27:24.674Z,4.40
2023-04-14T05:29:52.854Z,4.23
2023-04-14T05:34:48.692Z,4.33
2023-04-14T05:37:15.902Z,4.50
2023-04-14T05:39:43.279Z,4.40
2023-04-14T05:42:10.538Z,4.63
2023-04-14T05:44:37.715Z,4.50
2023-04-14T05:47:05.272Z,5.13
2023-04-14T05:49:32.438Z,5.03
2023-04-14T05:51:59.600Z,4.90
2023-04-14T05:54:26.757Z,4.83
2023-04-14T05:56:53.914Z,5.10
2023-04-14T05:59:21.205Z,5.00
2023-04-14T06:01:48.356Z,5.00
2023-04-14T06:04:15.792Z,5.57
2023-04-14T06:06:43.097Z,5.80
2023-04-14T06:09:10.314Z,5.00
2023-04-14T06:11:38.051Z,4.90
2023-04-14T06:14:07.283Z,5.23
2023-04-14T06:16:34.545Z,5.30
2023-04-14T06:19:02.058Z,5.20
2023-04-14T06:21:29.413Z,5.40
2023-04-14T06:23:56.451Z,4.97
2023-04-14T06:26:23.527Z,5.30
2023-04-14T06:28:50.804Z,4.87
2023-04-14T06:31:17.922Z,5.03
2023-04-14T06:33:45.077Z,6.93
2023-04-14T06:36:13.193Z,6.57
2023-04-14T06:38:40.354Z,6.27
2023-04-14T06:41:07.454Z,6.20
2023-04-14T06:43:34.521Z,6.10
2023-04-14T06:46:01.809Z,5.40
2023-04-14T06:48:28.933Z,5.60
2023-04-14T06:50:56.728Z,5.00
2023-04-14T06:53:24.319Z,5.27
2023-04-14T06:55:58.798Z,5.00
2023-04-14T06:58:26.453Z,4.93
2023-04-14T07:00:57.370Z,5.77
2023-04-14T07:03:24.808Z,5.97
2023-04-14T07:05:53.023Z,5.37
2023-04-14T07:08:21.066Z,5.87
2023-04-14T07:10:48.415Z,5.67
2023-04-14T07:13:35.531Z,5.63
2023-04-14T07:16:03.346Z,6.33
2023-04-14T07:18:31.910Z,5.53
2023-04-14T07:21:00.062Z,5.90
2023-04-14T07:23:27.784Z,5.77
2023-04-14T07:25:56.494Z,5.40
2023-04-14T07:28:24.405Z,5.23
2023-04-14T07:30:53.090Z,4.93
2023-04-14T07:33:22.270Z,4.60
2023-04-14T07:36:02.222Z,4.23
2023-04-14T07:38:30.295Z,4.50
2023-04-14T07:40:57.543Z,3.90
2023-04-14T07:43:24.745Z,3.60
2023-04-14T07:45:53.024Z,3.53
2023-04-14T07:48:21.560Z,3.70
2023-04-14T07:50:51.823Z,3.20
2023-04-14T07:53:18.924Z,3.03
2023-04-14T07:55:46.075Z,3.30
2023-04-14T07:58:15.796Z,3.10
2023-04-14T08:00:43.161Z,3.20
2023-04-14T08:03:10.674Z,3.10
2023-04-14T08:05:37.921Z,3.00
2023-04-14T08:08:05.550Z,2.73
2023-04-14T08:10:32.840Z,3.20
2023-04-14T08:13:02.274Z,3.33
2023-04-14T08:15:32.246Z,3.07
2023-04-14T08:17:59.601Z,3.20
2023-04-14T08:20:27.030Z,3.20
2023-04-14T08:22:54.106Z,3.33
2023-04-14T08:25:21.726Z,3.00
2023-04-14T08:27:48.895Z,3.53
2023-04-14T08:30:16.300Z,3.57
2023-04-14T08:32:43.447Z,3.20
2023-04-14T08:35:36.304Z,2.90
2023-04-14T08:38:01.044Z,2.77
2023-04-14T08:40:34.350Z,2.90
2023-04-14T08:43:01.531Z,3.00
2023-04-14T08:45:29.368Z,3.00
2023-04-14T08:47:57.574Z,2.70
2023-04-14T08:50:26.216Z,2.90
2023-04-14T08:52:56.074Z,2.87
2023-04-14T08:55:24.349Z,3.17
2023-04-14T08:57:51.549Z,3.50
2023-04-14T09:00:19.738Z,3.40
2023-04-14T09:02:47.589Z,3.23
2023-04-14T09:05:15.475Z,3.70
2023-04-14T09:07:43.044Z,3.60
2023-04-14T09:10:11.909Z,3.70
2023-04-14T09:12:42.384Z,3.40
2023-04-14T09:15:09.819Z,3.50
2023-04-14T09:17:37.055Z,3.20
2023-04-14T09:20:35.747Z,3.30
2023-04-14T09:22:51.459Z,3.17
2023-04-14T09:25:19.851Z,2.80
2023-04-14T09:27:47.087Z,2.50
2023-04-14T09:30:14.400Z,2.60
2023-04-14T09:32:42.580Z,2.67
2023-04-14T09:35:13.283Z,2.67
2023-04-14T09:37:47.585Z,2.37
2023-04-14T09:40:32.900Z,2.80
2023-04-14T09:43:01.278Z,2.43
2023-04-14T09:45:42.695Z,2.80
2023-04-14T09:48:11.034Z,2.70
2023-04-14T09:50:59.609Z,2.90
2023-04-14T09:53:30.352Z,3.00
2023-04-14T09:55:59.645Z,2.67
2023-04-14T09:58:31.186Z,2.50
2023-04-14T10:00:59.439Z,2.73
2023-04-14T10:03:34.552Z,2.37
2023-04-14T10:06:04.562Z,2.87
2023-04-14T10:08:36.171Z,2.77
2023-04-14T10:11:22.766Z,3.10
2023-04-14T10:13:51.121Z,2.57
2023-04-14T10:16:18.648Z,2.10
2023-04-14T10:18:46.678Z,2.00
2023-04-14T10:21:14.330Z,2.17
2023-04-14T10:23:42.279Z,2.13
2023-04-14T10:26:10.413Z,2.27
2023-04-14T10:28:39.237Z,2.07
2023-04-14T10:31:09.092Z,2.23
2023-04-14T10:33:39.424Z,2.30
2023-04-14T10:36:06.673Z,2.33
2023-04-14T10:38:44.342Z,2.47
2023-04-14T10:41:12.093Z,2.17
2023-04-14T10:43:39.929Z,2.23
2023-04-14T10:46:08.258Z,2.13
2023-04-14T10:48:36.200Z,2.30
2023-04-14T10:51:05.783Z,2.30
2023-04-14T10:53:50.215Z,2.33
2023-04-14T10:56:21.435Z,1.90
2023-04-14T10:58:56.201Z,2.40
2023-04-14T11:01:24.325Z,2.13
2023-04-14T11:03:51.700Z,2.37
2023-04-14T11:06:37.941Z,2.20
2023-04-14T11:09:22.306Z,2.20
2023-04-14T11:11:49.377Z,2.00
2023-04-14T11:14:16.547Z,2.23
2023-04-14T11:16:58.778Z,2.07
2023-04-14T11:19:30.751Z,2.00
2023-04-14T11:21:58.043Z,2.40
2023-04-14T11:24:26.505Z,2.30
2023-04-14T11:26:54.720Z,2.30
2023-04-14T11:29:22.781Z,2.30
2023-04-14T11:32:06.536Z,2.00
2023-04-14T11:34:34.514Z,2.27
2023-04-14T11:37:05.853Z,2.30
2023-04-14T11:39:33.191Z,2.40
2023-04-14T11:42:00.578Z,2.50
2023-04-14T11:44:27.908Z,2.63
2023-04-14T11:46:55.234Z,2.30
2023-04-14T11:49:33.362Z,2.07
2023-04-14T11:52:05.060Z,2.30
2023-04-14T11:54:36.129Z,2.50
2023-04-14T11:57:03.489Z,2.00
2023-04-14T11:59:30.731Z,2.33
2023-04-14T12:01:58.485Z,2.30
2023-04-14T12:04:26.659Z,2.20
2023-04-14T12:06:54.819Z,2.10
2023-04-14T12:09:22.320Z,2.20
2023-04-14T12:11:55.807Z,2.07
2023-04-14T12:14:23.116Z,2.00
2023-04-14T12:16:50.445Z,1.87
2023-04-14T12:19:17.608Z,2.03
2023-04-14T12:21:52.858Z,2.13
2023-04-14T12:24:20.047Z,2.50
2023-04-14T12:26:47.276Z,2.53
2023-04-14T12:29:14.476Z,2.57
2023-04-14T12:31:44.783Z,2.47
2023-04-14T12:34:14.930Z,2.63
2023-04-14T12:36:50.257Z,2.63
2023-04-14T12:39:17.937Z,2.57
2023-04-14T12:41:45.593Z,2.30
2023-04-14T12:44:14.313Z,2.40
2023-04-14T12:46:47.551Z,2.40
2023-04-14T12:49:37.522Z,2.20
2023-04-14T12:52:08.867Z,2.70
2023-04-14T12:54:50.032Z,2.27
2023-04-14T12:57:17.374Z,2.30
2023-04-14T12:59:45.756Z,2.60
2023-04-14T13:02:14.235Z,2.40
2023-04-14T13:04:42.184Z,2.30
2023-04-14T13:07:09.458Z,2.33
2023-04-14T13:09:36.679Z,2.33
2023-04-14T13:12:05.905Z,2.13
2023-04-14T13:14:33.089Z,2.40
2023-04-14T13:17:00.446Z,2.50
2023-04-14T13:19:27.711Z,2.47
2023-04-14T13:21:54.868Z,2.47
2023-04-14T13:24:22.018Z,2.53
2023-04-14T13:26:49.238Z,2.20
2023-04-14T13:29:16.456Z,2.03
2023-04-14T13:31:43.638Z,2.00
2023-04-14T13:34:11.254Z,1.83
2023-04-14T13:36:38.665Z,2.10
2023-04-14T13:39:06.208Z,1.87
2023-04-14T13:41:33.281Z,2.10
2023-04-14T13:44:00.514Z,1.70
2023-04-14T13:46:27.643Z,1.90
2023-04-14T13:48:54.965Z,2.20
2023-04-14T13:51:23.367Z,1.70
2023-04-14T13:53:50.674Z,2.07
2023-04-14T13:56:22.573Z,1.90
2023-04-14T13:58:49.789Z,2.07
2023-04-14T14:01:16.933Z,2.00
2023-04-14T14:03:44.718Z,1.70
2023-04-14T14:06:12.170Z,1.33
2023-04-14T14:08:39.444Z,1.80
2023-04-14T14:11:06.897Z,1.70
2023-04-14T14:13:38.579Z,1.80
2023-04-14T14:16:06.717Z,1.63
2023-04-14T14:18:34.237Z,1.57
2023-04-14T14:21:01.348Z,1.53
2023-04-14T14:23:28.470Z,1.77
2023-04-14T14:25:55.779Z,1.90
2023-04-14T14:28:22.940Z,1.70
2023-04-14T14:30:50.495Z,1.60
2023-04-14T14:33:17.663Z,1.67
2023-04-14T14:35:44.874Z,1.73
2023-04-14T14:38:12.088Z,1.87
2023-04-14T14:40:39.831Z,1.90
2023-04-14T14:43:07.339Z,1.80
2023-04-14T14:45:34.520Z,1.90
2023-04-14T14:48:01.984Z,1.93
2023-04-14T14:50:29.187Z,2.03
2023-04-14T14:52:56.885Z,1.80
2023-04-14T14:55:24.005Z,2.00
2023-04-14T14:57:51.324Z,1.80
2023-04-14T15:00:19.012Z,1.70
2023-04-14T15:02:46.561Z,1.80
2023-04-14T15:05:13.828Z,1.83
2023-04-14T15:07:40.907Z,1.80
2023-04-14T15:10:08.243Z,2.00
2023-04-14T15:12:35.576Z,2.40
2023-04-14T15:15:02.752Z,2.10
2023-04-14T15:17:30.028Z,2.07
2023-04-14T15:19:57.377Z,1.63
2023-04-14T15:22:24.440Z,2.00
2023-04-14T15:24:51.824Z,2.00
2023-04-14T15:27:18.899Z,2.10
2023-04-14T15:29:46.103Z,4.00
2023-04-14T15:32:13.215Z,2.90
2023-04-14T15:34:40.557Z,9.33
2023-04-14T15:37:07.656Z,3.43
2023-04-14T15:39:37.107Z,3.23
2023-04-14T15:42:04.317Z,3.97
2023-04-14T15:44:31.543Z,3.13
2023-04-14T15:46:59.582Z,3.53
2023-04-14T15:49:26.844Z,3.07
2023-04-14T15:51:54.108Z,2.37
2023-04-14T15:54:21.999Z,2.37
2023-04-14T15:56:52.529Z,2.50
2023-04-14T15:59:19.675Z,2.80
2023-04-14T16:01:46.798Z,2.30
2023-04-14T16:04:18.131Z,2.20
2023-04-14T16:06:46.232Z,2.87
2023-04-14T16:09:15.087Z,2.77
2023-04-14T16:11:42.253Z,2.73
2023-04-14T16:14:09.606Z,2.77
2023-04-14T16:16:36.852Z,2.70
2023-04-14T16:19:04.029Z,2.87
2023-04-14T16:21:31.619Z,2.70
2023-04-14T16:23:58.854Z,2.67
2023-04-14T16:26:26.115Z,2.63
2023-04-14T16:28:53.351Z,2.63
2023-04-14T16:31:20.939Z,3.20
2023-04-14T16:33:48.129Z,3.40
2023-04-14T16:36:15.649Z,4.00
2023-04-14T16:38:42.791Z,4.37
2023-04-14T16:41:09.981Z,4.30
2023-04-14T16:43:37.155Z,4.17
2023-04-14T16:46:05.089Z,4.40
2023-04-14T16:48:32.803Z,3.63
2023-04-14T16:51:07.011Z,3.90
2023-04-14T16:53:34.760Z,3.40
2023-04-14T16:56:05.452Z,3.27
2023-04-14T16:58:32.819Z,3.63
2023-04-14T17:01:00.578Z,3.60
2023-04-14T17:03:27.986Z,4.13
2023-04-14T17:05:55.326Z,3.90
2023-04-14T17:08:23.885Z,4.70
2023-04-14T17:10:51.556Z,4.60
2023-04-14T17:13:18.728Z,4.33
2023-04-14T17:15:49.449Z,3.83
2023-04-14T17:18:20.440Z,3.47
2023-04-14T17:20:47.662Z,3.80
2023-04-14T17:23:16.058Z,3.30
2023-04-14T17:25:43.717Z,3.33
2023-04-14T17:28:10.885Z,3.60
2023-04-14T17:30:38.087Z,3.33
2023-04-14T17:33:06.940Z,3.47
2023-04-14T17:35:34.687Z,3.63
2023-04-14T17:38:02.209Z,3.50
2023-04-14T17:40:29.375Z,3.00
2023-04-14T17:42:56.556Z,3.10
2023-04-14T17:45:23.728Z,3.07
2023-04-14T17:47:51.377Z,2.90
2023-04-14T17:50:18.544Z,2.87
2023-04-14T17:52:46.564Z,2.97
2023-04-14T17:55:14.704Z,2.80
2023-04-14T17:57:41.910Z,3.10
2023-04-14T18:00:10.683Z,3.10
2023-04-14T18:02:41.379Z,3.10
2023-04-14T18:05:10.920Z,3.20
2023-04-14T18:07:38.574Z,3.20
2023-04-14T18:10:06.480Z,3.53
2023-04-14T18:12:33.712Z,3.60
2023-04-14T18:15:00.935Z,3.40
2023-04-14T18:17:29.087Z,3.30
2023-04-14T18:19:59.442Z,3.53
2023-04-14T18:22:27.420Z,3.00
2023-04-14T18:24:54.622Z,3.37
2023-04-14T18:29:52.937Z,3.50
2023-04-14T18:32:20.186Z,3.43
2023-04-14T18:34:47.374Z,3.40
2023-04-14T18:37:15.805Z,3.37
2023-04-14T18:39:43.520Z,3.70
2023-04-14T18:42:11.346Z,3.30
2023-04-14T18:44:38.565Z,3.50
2023-04-14T18:47:05.729Z,3.47
2023-04-14T18:49:32.969Z,3.10
2023-04-14T18:52:00.427Z,3.23
2023-04-14T18:54:27.677Z,3.30
2023-04-14T18:56:54.891Z,3.13
2023-04-14T18:59:23.481Z,3.50
2023-04-14T19:01:50.959Z,3.37
2023-04-14T19:04:18.784Z,3.20
2023-04-14T19:06:48.194Z,3.40
2023-04-14T19:09:15.836Z,3.70
2023-04-14T19:11:45.316Z,3.00
2023-04-14T19:14:12.471Z,3.10
2023-04-14T19:16:39.784Z,3.20
2023-04-14T19:19:08.151Z,3.50
2023-04-14T19:21:35.451Z,3.17
2023-04-14T19:24:02.640Z,2.83
2023-04-14T19:26:30.185Z,2.97
2023-04-14T19:29:00.989Z,2.93
2023-04-14T19:31:28.515Z,2.63
2023-04-14T19:33:56.505Z,2.67
2023-04-14T19:36:23.624Z,2.77
2023-04-14T19:38:51.602Z,2.70
2023-04-14T19:41:19.331Z,2.70
2023-04-14T19:43:46.872Z,2.97
2023-04-14T19:46:15.037Z,2.70
2023-04-14T19:48:42.216Z,2.43
2023-04-14T19:51:09.880Z,2.60
2023-04-14T19:53:37.463Z,2.23
2023-04-14T19:56:05.593Z,2.60
2023-04-14T19:58:32.917Z,2.50
2023-04-14T20:01:00.918Z,2.60
2023-04-14T20:03:28.448Z,2.30
2023-04-14T20:05:56.919Z,2.60
2023-04-14T20:08:25.025Z,2.43
2023-04-14T20:10:53.171Z,2.80
2023-04-14T20:13:21.112Z,2.60
2023-04-14T20:15:49.193Z,2.70
2023-04-14T20:18:17.934Z,2.70
2023-04-14T20:20:45.673Z,2.40
2023-04-14T20:23:12.764Z,2.73
2023-04-14T20:25:39.911Z,2.60
2023-04-14T20:28:07.567Z,2.30
2023-04-14T20:30:34.757Z,2.40
2023-04-14T20:33:05.786Z,2.20
2023-04-14T20:35:35.776Z,2.70
2023-04-14T20:38:03.082Z,2.23
2023-04-14T20:40:30.276Z,2.20
2023-04-14T20:42:57.375Z,2.50
2023-04-14T20:45:24.685Z,2.30
2023-04-14T20:47:51.977Z,2.20
2023-04-14T20:50:19.338Z,1.93
2023-04-14T20:52:46.538Z,2.10
2023-04-14T20:55:13.666Z,2.10
2023-04-14T20:57:44.891Z,2.20
2023-04-14T21:00:15.476Z,2.20
2023-04-14T21:02:43.475Z,1.90
2023-04-14T21:05:11.314Z,1.93
2023-04-14T21:07:40.023Z,1.97
2023-04-14T21:10:07.426Z,2.00
2023-04-14T21:12:35.292Z,2.03
2023-04-14T21:15:48.627Z,2.07
2023-04-14T21:17:51.726Z,2.00
2023-04-14T21:20:18.894Z,1.97
2023-04-14T21:22:46.046Z,1.80
2023-04-14T21:25:13.125Z,1.90
2023-04-14T21:27:40.319Z,1.57
2023-04-14T21:30:09.073Z,1.67
2023-04-14T21:32:36.375Z,1.60
2023-04-14T21:35:03.517Z,1.90
2023-04-14T21:37:30.730Z,1.70
2023-04-14T21:39:59.067Z,1.80
2023-04-14T21:42:26.495Z,1.90
2023-04-14T21:44:54.401Z,1.70
2023-04-14T21:47:22.194Z,1.60
2023-04-14T21:49:49.364Z,1.57
2023-04-14T21:52:16.473Z,1.50
2023-04-14T21:54:45.111Z,1.60
2023-04-14T21:57:12.180Z,1.67
2023-04-14T21:59:39.259Z,1.40
2023-04-14T22:02:06.967Z,1.50
2023-04-14T22:04:36.846Z,1.70
2023-04-14T22:07:05.167Z,1.60
2023-04-14T22:09:33.356Z,1.70
2023-04-14T22:12:00.899Z,1.90
2023-04-14T22:14:28.103Z,1.70
2023-04-14T22:16:55.574Z,1.90
2023-04-14T22:19:23.084Z,2.03
2023-04-14T22:21:50.128Z,1.80
2023-04-14T22:24:17.626Z,1.87
2023-04-14T22:26:44.672Z,2.00
2023-04-14T22:29:11.836Z,1.90
2023-04-14T22:31:38.937Z,1.67
2023-04-14T22:34:06.743Z,2.33
2023-04-14T22:36:33.920Z,2.00
2023-04-14T22:39:01.289Z,1.73
2023-04-14T22:41:28.560Z,1.60
2023-04-14T22:43:56.152Z,1.60
2023-04-14T22:46:23.229Z,1.30
2023-04-14T22:48:51.046Z,1.80
2023-04-14T22:51:18.112Z,1.90
2023-04-14T22:53:45.932Z,1.97
2023-04-14T22:56:13.067Z,1.80
2023-04-14T22:58:40.216Z,1.80
2023-04-14T23:01:19.001Z,1.80
2023-04-14T23:03:52.290Z,2.10
2023-04-14T23:06:20.149Z,2.10
2023-04-14T23:08:50.903Z,1.80
2023-04-14T23:11:20.652Z,1.90
2023-04-14T23:13:48.485Z,2.10
2023-04-14T23:16:16.784Z,1.70
2023-04-14T23:18:43.953Z,1.77
2023-04-14T23:21:11.626Z,1.70
2023-04-14T23:23:38.708Z,1.90
2023-04-14T23:26:06.478Z,1.80
2023-04-14T23:28:33.549Z,1.97
2023-04-14T23:31:00.860Z,1.97
2023-04-14T23:33:28.054Z,2.30
2023-04-14T23:35:55.126Z,2.50
2023-04-14T23:38:22.269Z,2.10
2023-04-14T23:40:49.411Z,2.40
2023-04-14T23:43:16.608Z,2.10
2023-04-14T23:45:43.722Z,2.20
2023-04-14T23:48:10.951Z,2.30
2023-04-14T23:51:00.792Z,2.10
2023-04-14T23:53:25.631Z,1.83
2023-04-14T23:55:52.904Z,1.77
2023-04-14T23:58:26.466Z,1.90
